• Join FlightAware (Why Join?)
  • Login
  • US Flag 
12:02AM EST


 

Airport Tracker/Info


-or-


 

Live Flight TrackerFlight Track Log ✈ EJA941 ✈ 08-Oct-2013 ✈ KMAF - KDAL

Flight Track Log - Related Links

Times and Time Zones

All times are in EDT time to prevent confusion due to time zone crossing. See the EJA941 flight status page for this flight to view local times or setup timezone preferences in your user account.

Time Position Orientation Groundspeed Altitude Reporting Facility
EDT Latitude Longitude Course Direction KTS MPH feet Rate Location/Type
09:39AM 31.8789 -102.0614 77° East 300 345 10,100  Level Fort Worth Center
09:40AM 31.8953 -101.9544 80° East 307 353 11,600 1,500 Climbing Fort Worth Center
09:41AM 31.9164 -101.8308 79° East 345 397 13,200 1,620 Climbing Fort Worth Center
09:42AM 31.9353 -101.7069 80° East 370 426 14,900 1,620 Climbing Fort Worth Center
09:43AM 32.0927 -101.4055 77° East  Level Estimated
09:43AM 31.9583 -101.5808 78° East 381 438 16,500  Level Fort Worth Center
09:44AM 31.9794 -101.4494 79° East 396 456 18,100 1,560 Climbing Fort Worth Center
09:45AM 32.0022 -101.3158 79° East 402 463 19,700 1,440 Climbing Fort Worth Center
09:46AM 32.0233 -101.1794 80° East 413 475 21,000 1,320 Climbing Fort Worth Center
09:47AM 32.0461 -101.0406 79° East 424 488 22,400 1,500 Climbing Fort Worth Center
09:48AM 32.0667 -100.8994 80° East 429 494 24,100 1,560 Climbing Fort Worth Center
09:49AM 32.0894 -100.7531 80° East 440 506 25,600 1,440 Climbing Fort Worth Center
09:50AM 32.1122 -100.6044 80° East 451 519 27,000 1,260 Climbing Fort Worth Center
09:51AM 32.1369 -100.4506 79° East 457 526 28,200 960 Climbing Fort Worth Center
09:52AM 32.1614 -100.2944 79° East 475 547 29,000 360 Climbing Fort Worth Center
09:53AM 32.1861 -100.1283 80° East 495 570 29,000  Level Fort Worth Center
09:54AM 32.2125 -99.9547 80° East 514 592 29,000  Level Fort Worth Center
09:55AM 32.2325 -99.7883 82° East 521 600 29,000  Level Fort Worth Center
09:56AM 32.2294 -99.6139 91° East 521 600 29,000  Level Fort Worth Center
09:57AM 32.2197 -99.4417 94° East 521 600 29,000  Level Fort Worth Center
09:58AM 32.2161 -99.2722 91° East 521 600 29,000  Level Fort Worth Center
09:59AM 32.2103 -99.1003 92° East 521 600 29,000 -600 Level Fort Worth Center
10:00AM 32.2022 -98.9258 93° East 521 600 27,900 -1,980 Descending Fort Worth Center
10:01AM 32.1978 -98.7586 92° East 516 594 25,100 -2,400 Descending Fort Worth Center
10:02AM 32.2056 -98.5969 87° East 509 586 23,200 -1,980 Descending Fort Worth Center
10:03AM 32.2489 -98.4278 73° East 488 562 21,200 -1,800 Descending Fort Worth Center
10:04AM 32.2833 -98.2931 73° East 476 548 19,700 -1,680 Descending Fort Worth Center
10:05AM 32.3197 -98.1311 75° East 464 534 17,900 -1,620 Descending Fort Worth Center
10:06AM 32.3517 -98.0036 73° East 457 526 16,500 -1,440 Descending Fort Worth Center
10:07AM 32.3794 -97.8808 75° East 440 506 15,100 -1,560 Descending Fort Worth Center
10:08AM 32.4156 -97.7308 74° East 427 491 13,400 -1,680 Descending Fort Worth Center
10:09AM 32.4492 -97.5883 74° East 418 481 11,800 -1,200 Descending Fort Worth Center
10:10AM 32.4953 -97.4775 64° Northeast 412 474 11,000 -420 Descending Fort Worth Center
10:11AM 32.5828 -97.3714 46° Northeast 404 465 11,000  Level Fort Worth Center
10:12AM 32.6456 -97.2950 46° Northeast 382 440 11,000  Level Fort Worth Center
10:13AM 32.7081 -97.2208 45° Northeast 298 343 11,000  Level Fort Worth Center
10:14AM 32.7539 -97.1739 41° Northeast 250 288 11,000 -240 Level Fort Worth Center
10:15AM 32.8289 -97.1761 359° North 233 268 10,600 -1,440 Descending Fort Worth Center
10:16AM 32.8958 -97.1586 12° North 238 274 8,200 -2,400 Descending Fort Worth Center
10:17AM 32.9206 -97.0842 68° East 213 245 5,900 -1,680 Descending Fort Worth Center
10:18AM 32.9392 -97.0197 71° East 207 238 4,900 -1,080 Descending Fort Worth Center
10:19AM 32.9392 -96.9678 90° East 186 214 3,800 -1,200 Descending Fort Worth Center
10:20AM 32.9056 -96.9236 132° Southeast 155 178 2,500 -1,260 Descending Fort Worth Center
10:22AM 32.8667 -96.8667 129° Southeast 118 136 800 -1,200 Descending Dallas / Fort Worth TRACON
10:23AM 32.8471 -96.8518 73° East  Level Estimated
10:30AM 32.8471 -96.8518 73° East  Level Estimated
10:31AM 32.8471 -96.8518 73° East  Level Estimated